Time;durP1;ratioP1;P1;durP2;ratioP2;P2;SDS_P1;SDS_P2;PMS_P1;PMS_P2;Temp;Humidity;BMP_temperature;BMP_pressure;BME280_temperature;BME280_humidity;BME280_pressure;Samples;Min_cycle;Max_cycle;Signal;HPM_P1;HPM_P2
2021/09/11 00:04:49;;;;;;;12.38;9.25;;;;;;;11.31;71.22;99895.89;254599;1107;115181;-64
2021/09/11 00:09:52;;;;;;;16.95;8.28;;;;;;;11.29;71.10;99897.98;254709;1100;115627;-63
2021/09/11 00:14:55;;;;;;;15.80;8.30;;;;;;;11.26;71.11;99893.93;255713;1107;114832;-63
2021/09/11 00:19:59;;;;;;;10.60;8.40;;;;;;;11.25;70.95;99891.49;255046;1107;117655;-64
2021/09/11 00:25:03;;;;;;;15.28;8.60;;;;;;;11.22;71.25;99897.30;255272;1107;116547;-64
2021/09/11 00:30:07;;;;;;;17.07;10.57;;;;;;;11.24;71.27;99895.20;254788;1106;116354;-64
2021/09/11 00:35:18;;;;;;;15.40;9.28;;;;;;;11.27;71.57;99897.41;256017;1107;116428;-64
2021/09/11 00:40:21;;;;;;;15.80;7.65;;;;;;;11.29;71.10;99892.66;256504;1107;116203;-64
2021/09/11 00:45:24;;;;;;;13.88;9.20;;;;;;;11.27;71.50;99878.73;256168;1107;121786;-64
2021/09/11 00:50:28;;;;;;;16.67;10.60;;;;;;;11.23;71.33;99877.58;256173;1106;116951;-64
2021/09/11 00:55:33;;;;;;;15.18;9.45;;;;;;;11.31;71.37;99872.66;254742;1107;115985;-65
2021/09/11 01:00:36;;;;;;;14.10;10.60;;;;;;;11.37;71.92;99873.58;254792;1107;116280;-64
2021/09/11 01:05:41;;;;;;;15.38;8.75;;;;;;;11.45;71.86;99874.02;255649;1107;116625;-63
2021/09/11 01:10:44;;;;;;;14.20;9.20;;;;;;;11.49;71.97;99861.02;256192;1107;115832;-64
2021/09/11 01:15:47;;;;;;;19.45;10.90;;;;;;;11.46;71.44;99856.97;254242;1106;115490;-65
2021/09/11 01:20:51;;;;;;;14.83;10.63;;;;;;;11.48;71.66;99860.20;255719;1106;115838;-64
2021/09/11 01:25:55;;;;;;;15.45;10.35;;;;;;;11.52;71.77;99871.23;254161;1107;116553;-63
2021/09/11 01:30:57;;;;;;;12.78;9.00;;;;;;;11.45;71.34;99860.68;253853;1107;117995;-64
2021/09/11 01:36:01;;;;;;;15.53;10.83;;;;;;;11.42;71.76;99865.67;254214;1107;117063;-63
2021/09/11 01:41:05;;;;;;;14.20;9.13;;;;;;;11.29;71.71;99866.78;254664;1103;117239;-64
2021/09/11 01:46:07;;;;;;;14.33;10.08;;;;;;;11.19;71.86;99868.41;254285;1107;137586;-63
2021/09/11 01:51:11;;;;;;;18.75;9.55;;;;;;;11.21;72.23;99864.47;254607;1107;118658;-63
2021/09/11 01:56:15;;;;;;;14.83;9.73;;;;;;;11.26;72.01;99871.77;254548;1107;117724;-65
2021/09/11 02:01:18;;;;;;;11.88;9.35;;;;;;;11.11;71.79;99861.58;254754;1106;117099;-63
2021/09/11 02:06:21;;;;;;;19.07;10.07;;;;;;;11.05;71.63;99870.52;254156;1103;117490;-63
2021/09/11 02:11:25;;;;;;;19.50;9.63;;;;;;;11.07;72.53;99868.42;254481;1107;115762;-64
2021/09/11 02:16:29;;;;;;;17.10;9.57;;;;;;;11.07;72.21;99874.57;255756;1100;115902;-63
2021/09/11 02:21:33;;;;;;;15.73;10.25;;;;;;;11.08;72.14;99865.52;254759;1106;116105;-63
2021/09/11 02:26:37;;;;;;;27.50;11.08;;;;;;;11.14;72.70;99864.59;256164;1107;116485;-64
2021/09/11 02:31:40;;;;;;;11.70;7.85;;;;;;;11.10;72.17;99859.95;256162;1107;117106;-63
2021/09/11 02:36:44;;;;;;;15.93;10.80;;;;;;;10.98;72.28;99857.33;255961;1107;116640;-64
2021/09/11 02:41:47;;;;;;;16.98;10.35;;;;;;;10.92;72.62;99860.11;255976;1107;117135;-66
2021/09/11 02:46:51;;;;;;;13.33;8.80;;;;;;;10.98;72.83;99865.33;255849;1107;116406;-63
2021/09/11 02:51:55;;;;;;;15.50;9.50;;;;;;;11.06;72.73;99859.61;256375;1106;116151;-63
2021/09/11 02:56:58;;;;;;;14.05;10.10;;;;;;;11.11;72.46;99866.91;255600;1107;117040;-63
2021/09/11 03:02:02;;;;;;;17.10;10.23;;;;;;;11.16;73.17;99858.21;254971;1107;115521;-64
2021/09/11 03:07:06;;;;;;;16.48;10.33;;;;;;;11.17;72.54;99871.31;254833;1107;116265;-63
2021/09/11 03:12:10;;;;;;;15.33;11.08;;;;;;;11.16;72.70;99860.88;254768;1107;116620;-63
2021/09/11 03:17:14;;;;;;;14.30;11.08;;;;;;;11.08;72.33;99854.85;254173;1107;116992;-63
2021/09/11 03:22:18;;;;;;;18.58;10.98;;;;;;;10.97;72.79;99855.70;254220;1107;117267;-63
2021/09/11 03:27:21;;;;;;;12.25;9.20;;;;;;;10.95;72.59;99865.79;254584;1106;116010;-63
2021/09/11 03:32:25;;;;;;;16.45;10.65;;;;;;;10.96;72.92;99858.60;254274;1103;117341;-63
2021/09/11 03:37:29;;;;;;;18.33;11.00;;;;;;;10.95;72.93;99855.13;254252;1107;116736;-63
2021/09/11 03:42:32;;;;;;;16.43;10.58;;;;;;;10.93;72.80;99856.40;254143;1107;115962;-64
2021/09/11 03:47:36;;;;;;;19.05;11.65;;;;;;;10.83;73.09;99853.50;255018;1107;115605;-63
2021/09/11 03:52:41;;;;;;;14.10;10.27;;;;;;;10.82;73.05;99846.55;254257;1100;115946;-64
2021/09/11 03:57:44;;;;;;;18.73;11.58;;;;;;;10.85;73.39;99849.56;254393;1107;116432;-63
2021/09/11 04:02:47;;;;;;;19.15;12.43;;;;;;;10.91;73.55;99845.96;254010;1107;116323;-66
2021/09/11 04:07:54;;;;;;;19.80;11.63;;;;;;;10.90;73.33;99857.67;254004;1100;116596;-63
2021/09/11 04:12:57;;;;;;;15.05;10.88;;;;;;;10.90;73.38;99852.34;253881;1106;116651;-64
2021/09/11 04:18:00;;;;;;;13.93;11.13;;;;;;;10.93;73.63;99859.06;255559;1106;116751;-63
2021/09/11 04:23:03;;;;;;;15.73;10.90;;;;;;;10.95;73.21;99860.45;254852;1107;116531;-63
2021/09/11 04:28:07;;;;;;;14.45;10.40;;;;;;;11.00;73.35;99859.76;256162;1107;116384;-63
2021/09/11 04:33:11;;;;;;;18.10;11.00;;;;;;;10.99;73.50;99863.47;255295;1107;216033;-62
2021/09/11 04:38:14;;;;;;;12.93;10.00;;;;;;;11.06;73.77;99856.13;256164;1107;116835;-63
2021/09/11 04:43:17;;;;;;;13.98;10.25;;;;;;;11.18;73.35;99854.27;255660;1107;117295;-63
2021/09/11 04:48:21;;;;;;;23.65;13.53;;;;;;;11.33;73.78;99857.22;256223;1107;118602;-63
2021/09/11 04:53:24;;;;;;;26.83;12.10;;;;;;;11.51;73.61;99853.59;256017;1107;117137;-64
2021/09/11 04:58:28;;;;;;;15.03;10.53;;;;;;;11.64;73.29;99858.63;255474;1105;118538;-63
2021/09/11 05:03:30;;;;;;;21.50;11.80;;;;;;;11.63;73.22;99856.19;254742;1107;117564;-63
2021/09/11 05:08:33;;;;;;;14.48;10.25;;;;;;;11.77;73.37;99860.24;254283;1107;116517;-63
2021/09/11 05:13:37;;;;;;;15.67;10.77;;;;;;;11.97;73.72;99855.25;254403;1107;116536;-63
2021/09/11 05:18:40;;;;;;;19.35;13.28;;;;;;;12.13;73.38;99859.81;254211;1107;116678;-63
2021/09/11 05:23:43;;;;;;;32.33;13.58;;;;;;;12.26;73.50;99861.34;254132;1107;115862;-63
2021/09/11 05:28:47;;;;;;;19.78;13.60;;;;;;;12.43;73.64;99866.71;254234;1100;117020;-65
2021/09/11 05:33:50;;;;;;;22.05;12.68;;;;;;;12.59;73.39;99863.20;254129;1107;117154;-62
2021/09/11 05:38:57;;;;;;;16.53;12.28;;;;;;;12.67;73.66;99859.31;254470;1107;116338;-63
2021/09/11 05:44:01;;;;;;;34.93;12.93;;;;;;;12.77;73.56;99854.13;253844;1107;116384;-63
2021/09/11 05:49:04;;;;;;;21.80;13.23;;;;;;;12.88;73.50;99863.89;254635;1103;116078;-63
2021/09/11 05:54:08;;;;;;;20.15;11.50;;;;;;;13.04;73.45;99856.89;254276;1106;115677;-64
2021/09/11 05:59:12;;;;;;;18.20;11.75;;;;;;;13.22;73.60;99861.97;254697;1100;115892;-64
2021/09/11 06:04:15;;;;;;;20.33;12.20;;;;;;;13.39;73.20;99870.76;253964;1102;115457;-63
2021/09/11 06:09:19;;;;;;;17.10;11.80;;;;;;;13.61;73.26;99865.38;254396;1107;115864;-63
2021/09/11 06:14:23;;;;;;;19.28;11.80;;;;;;;13.76;73.12;99867.39;254055;1107;116172;-63
2021/09/11 06:19:27;;;;;;;14.35;10.60;;;;;;;13.95;73.41;99871.36;254427;1107;117164;-64
2021/09/11 06:24:31;;;;;;;16.80;12.73;;;;;;;14.14;73.10;99861.88;255127;1106;115658;-64
2021/09/11 06:29:35;;;;;;;19.83;11.93;;;;;;;14.36;72.69;99864.50;254583;1107;115743;-65
2021/09/11 06:34:39;;;;;;;20.00;10.90;;;;;;;14.57;72.25;99856.62;255537;1100;116299;-66
2021/09/11 06:39:41;;;;;;;16.38;10.60;;;;;;;14.84;72.45;99857.33;255406;1107;114915;-65
2021/09/11 06:44:45;;;;;;;19.13;11.13;;;;;;;15.06;72.01;99866.03;256215;1107;116280;-65
2021/09/11 06:49:48;;;;;;;17.23;11.10;;;;;;;15.26;71.50;99865.34;255248;1107;118532;-64
2021/09/11 06:54:51;;;;;;;11.55;10.35;;;;;;;15.48;71.49;99874.02;256194;1107;114934;-65
2021/09/11 06:59:54;;;;;;;16.23;10.63;;;;;;;15.73;71.37;99867.13;255046;1106;115610;-65
2021/09/11 07:04:58;;;;;;;13.95;9.60;;;;;;;16.02;71.13;99875.52;254132;1106;117714;-64
2021/09/11 07:10:02;;;;;;;8.88;7.98;;;;;;;16.61;70.58;99874.98;254553;1100;116026;-65
2021/09/11 07:15:07;;;;;;;13.45;8.48;;;;;;;17.27;70.30;99875.67;255217;1107;115569;-65
2021/09/11 07:20:12;;;;;;;9.53;8.63;;;;;;;17.84;69.39;99882.42;254404;1107;115997;-67
2021/09/11 07:25:15;;;;;;;15.88;8.88;;;;;;;18.27;68.90;99878.09;254287;1107;115786;-64
2021/09/11 07:30:19;;;;;;;12.60;8.90;;;;;;;18.61;69.06;99877.31;253949;1100;117707;-64
2021/09/11 07:35:23;;;;;;;10.25;6.60;;;;;;;18.88;68.10;99874.88;254885;1103;115764;-64
2021/09/11 07:40:27;;;;;;;18.73;7.78;;;;;;;19.14;67.94;99870.80;254093;1107;119302;-66
2021/09/11 07:45:31;;;;;;;7.30;5.97;;;;;;;19.30;67.20;99879.52;254280;1107;115784;-66
2021/09/11 07:50:36;;;;;;;12.05;8.55;;;;;;;19.40;66.50;99889.41;253863;1107;115681;-66
2021/09/11 07:55:39;;;;;;;9.55;7.93;;;;;;;19.48;66.00;99894.19;253778;1100;115449;-66
2021/09/11 08:00:43;;;;;;;15.08;7.63;;;;;;;19.60;65.68;99904.59;254360;1107;115126;-66
2021/09/11 08:05:47;;;;;;;10.40;6.87;;;;;;;19.65;65.39;99891.82;254252;1107;115423;-65
2021/09/11 08:10:51;;;;;;;6.40;5.70;;;;;;;19.79;65.54;99887.31;253938;1102;115953;-66
2021/09/11 08:15:55;;;;;;;7.83;7.10;;;;;;;19.98;65.00;99895.42;254099;1107;115528;-66
2021/09/11 08:20:58;;;;;;;7.40;5.90;;;;;;;20.29;64.83;99887.64;255241;1107;115648;-66
2021/09/11 08:26:04;;;;;;;12.20;6.60;;;;;;;20.68;64.47;99886.50;254823;1107;114828;-66
2021/09/11 08:31:08;;;;;;;17.75;6.70;;;;;;;21.05;64.48;99894.48;255863;1107;115792;-67
2021/09/11 08:36:12;;;;;;;12.40;6.43;;;;;;;21.40;64.10;99892.98;254546;1107;116049;-67
2021/09/11 08:41:15;;;;;;;6.68;5.80;;;;;;;21.78;63.38;99893.55;256245;1107;115839;-67
2021/09/11 08:46:19;;;;;;;12.65;6.43;;;;;;;21.98;62.43;99892.30;254757;1107;115383;-68
2021/09/11 08:51:23;;;;;;;11.98;6.50;;;;;;;22.29;61.81;99891.62;254733;1100;116130;-66
2021/09/11 08:56:27;;;;;;;;;;;;;;;22.58;61.40;99891.17;253874;1107;117521;-66
2021/09/11 09:01:31;;;;;;;6.73;5.67;;;;;;;22.94;61.25;99893.77;255687;1107;105119;-68
2021/09/11 09:06:36;;;;;;;8.70;6.53;;;;;;;23.39;61.21;99894.44;254740;1107;116638;-68
2021/09/11 09:11:43;;;;;;;8.18;6.43;;;;;;;23.74;60.41;99885.27;254924;1106;116397;-68
2021/09/11 09:16:52;;;;;;;8.63;6.33;;;;;;;24.08;60.02;99889.93;255400;1107;115348;-67
2021/09/11 09:22:01;;;;;;;8.85;5.28;;;;;;;24.34;59.54;99881.77;254547;1107;115756;-67
2021/09/11 09:27:08;;;;;;;11.55;7.38;;;;;;;24.65;58.38;99895.18;254043;1107;115431;-66
2021/09/11 09:32:12;;;;;;;12.67;7.17;;;;;;;25.01;57.92;99889.33;253798;1107;115861;-66
2021/09/11 09:37:19;;;;;;;9.20;6.67;;;;;;;25.22;57.66;99894.05;254047;1107;115129;-67
2021/09/11 09:42:28;;;;;;;10.20;7.05;;;;;;;25.38;56.95;99892.34;254234;1107;114988;-68
2021/09/11 09:47:31;;;;;;;9.13;6.60;;;;;;;25.59;56.36;99893.20;254202;1107;116418;-68
2021/09/11 09:52:35;;;;;;;10.00;6.10;;;;;;;25.87;55.69;99888.06;254208;1107;115431;-67
2021/09/11 09:57:41;;;;;;;7.48;6.28;;;;;;;26.12;55.29;99888.98;253999;1106;116813;-67
2021/09/11 10:02:43;;;;;;;;;;;;;;;26.38;55.10;99886.84;253551;1107;117711;-67
2021/09/11 10:08:07;;;;;;;7.98;6.90;;;;;;;26.65;54.61;99892.84;255344;1106;103053;-68
2021/09/11 10:13:15;;;;;;;12.43;6.50;;;;;;;26.58;53.87;99889.88;253755;1100;115021;-67
2021/09/11 10:18:30;;;;;;;9.85;7.10;;;;;;;26.78;53.02;99892.54;253991;1106;117320;-67
2021/09/11 10:23:34;;;;;;;10.00;6.18;;;;;;;26.94;53.63;99889.92;254042;1107;116140;-68
2021/09/11 10:28:37;;;;;;;9.10;6.58;;;;;;;27.00;53.08;99887.80;254430;1107;115788;-68
2021/09/11 10:33:42;;;;;;;7.50;6.83;;;;;;;27.16;52.55;99880.53;254039;1107;118662;-68
2021/09/11 10:38:50;;;;;;;12.75;7.95;;;;;;;27.30;52.18;99886.45;255287;1107;115973;-68
2021/09/11 10:44:05;;;;;;;7.47;6.77;;;;;;;27.49;52.17;99891.36;253728;1100;117276;-68
2021/09/11 10:49:32;;;;;;;7.40;6.45;;;;;;;27.68;51.58;99886.11;256205;1106;116837;-69
2021/09/11 10:54:43;;;;;;;7.65;6.85;;;;;;;27.72;50.92;99873.31;254684;1107;117049;-69
2021/09/11 10:59:48;;;;;;;7.65;6.53;;;;;;;27.41;50.92;99881.32;254865;1107;117812;-68
2021/09/11 11:04:52;;;;;;;;;;;;;;;27.31;51.11;99876.30;254430;1107;115754;-68
2021/09/11 11:10:05;;;;;;;8.33;6.20;;;;;;;27.10;50.91;99869.02;255755;1106;103672;-70
2021/09/11 11:15:12;;;;;;;8.28;7.10;;;;;;;27.35;50.92;99872.54;254874;1107;115731;-68
2021/09/11 11:20:27;;;;;;;7.38;6.70;;;;;;;27.58;50.79;99870.13;254227;1107;116509;-69
2021/09/11 11:25:36;;;;;;;7.83;6.88;;;;;;;27.69;50.61;99857.58;253864;1107;116293;-69
2021/09/11 11:30:41;;;;;;;13.08;6.70;;;;;;;27.77;50.24;99850.38;253788;1107;116468;-68
2021/09/11 11:35:44;;;;;;;8.98;5.28;;;;;;;27.88;49.76;99856.94;253766;1107;116300;-70
2021/09/11 11:40:48;;;;;;;10.63;7.73;;;;;;;27.84;49.84;99851.36;253624;1107;116256;-70
2021/09/11 11:45:52;;;;;;;7.68;6.88;;;;;;;27.80;49.27;99845.00;254397;1107;116522;-69
2021/09/11 11:50:55;;;;;;;6.97;6.37;;;;;;;27.63;49.42;99844.45;253783;1106;115594;-70
2021/09/11 11:55:59;;;;;;;8.68;6.68;;;;;;;27.29;49.43;99851.20;253778;1100;115426;-71
2021/09/11 12:01:03;;;;;;;7.10;6.40;;;;;;;27.42;49.90;99834.44;253930;1106;115758;-70
2021/09/11 12:06:23;;;;;;;8.08;6.63;;;;;;;27.41;49.95;99834.78;253743;1100;115651;-71
2021/09/11 12:11:29;;;;;;;7.90;6.95;;;;;;;27.20;49.80;99834.13;253546;1107;115556;-70
2021/09/11 12:16:35;;;;;;;12.03;6.25;;;;;;;27.41;49.90;99826.57;253645;1107;116093;-70
2021/09/11 12:21:39;;;;;;;6.18;5.55;;;;;;;27.59;49.35;99822.44;253581;1106;116108;-71
2021/09/11 12:26:43;;;;;;;8.38;6.88;;;;;;;27.67;49.58;99824.25;253593;1107;115696;-71
2021/09/11 12:31:56;;;;;;;7.75;6.43;;;;;;;27.81;49.13;99819.20;255037;1107;116695;-70
2021/09/11 12:37:03;;;;;;;9.73;7.30;;;;;;;27.87;48.76;99810.72;256217;1107;115292;-70
2021/09/11 12:42:20;;;;;;;7.73;6.93;;;;;;;27.87;48.45;99810.72;255898;1107;115472;-70
2021/09/11 12:47:24;;;;;;;12.33;7.80;;;;;;;27.83;47.98;99802.39;254455;1106;114924;-70
2021/09/11 12:52:29;;;;;;;7.53;5.93;;;;;;;27.83;47.88;99796.91;256263;1107;115752;-70
2021/09/11 12:57:33;;;;;;;11.43;7.55;;;;;;;27.89;48.00;99798.27;256174;1107;115146;-70
2021/09/11 13:02:36;;;;;;;10.50;7.58;;;;;;;27.92;47.62;99785.81;256177;1106;115684;-70
2021/09/11 13:07:40;;;;;;;9.55;6.38;;;;;;;27.84;47.62;99788.34;255746;1107;116243;-70
2021/09/11 13:12:44;;;;;;;7.75;6.60;;;;;;;27.81;47.50;99791.02;254098;1107;116017;-70
2021/09/11 13:17:49;;;;;;;7.53;6.20;;;;;;;27.81;47.30;99791.81;253653;1106;117225;-71
2021/09/11 13:22:53;;;;;;;7.65;6.95;;;;;;;27.81;47.96;99786.34;253949;1107;116489;-69
2021/09/11 13:27:56;;;;;;;9.05;7.50;;;;;;;27.82;48.08;99782.42;253588;1107;116824;-69
2021/09/11 13:32:59;;;;;;;14.45;7.58;;;;;;;27.88;48.08;99782.17;253890;1107;116154;-69
2021/09/11 13:38:03;;;;;;;8.27;7.00;;;;;;;27.83;47.88;99781.27;253793;1107;116359;-69
2021/09/11 13:43:06;;;;;;;10.93;7.00;;;;;;;27.70;47.76;99774.27;253902;1107;115860;-69
2021/09/11 13:48:24;;;;;;;8.00;7.00;;;;;;;27.61;47.81;99773.61;253599;1107;116036;-69
2021/09/11 13:53:27;;;;;;;8.03;7.33;;;;;;;27.60;47.93;99766.53;253768;1107;116748;-69
2021/09/11 13:58:30;;;;;;;10.93;6.53;;;;;;;27.55;47.58;99765.95;254215;1107;114515;-68
2021/09/11 14:03:33;;;;;;;7.80;7.10;;;;;;;27.47;47.71;99776.72;253841;1107;115992;-70
2021/09/11 14:08:38;;;;;;;;;;;;;;;27.36;47.80;99764.64;253950;1107;115346;-68
2021/09/11 14:13:41;;;;;;;7.67;6.93;;;;;;;27.27;47.78;99765.91;254354;1105;106193;-69
2021/09/11 14:18:46;;;;;;;11.30;7.45;;;;;;;27.15;47.79;99759.33;254040;1106;115812;-69
2021/09/11 14:23:50;;;;;;;;;;;;;;;27.11;48.32;99769.37;253996;1107;116278;-69
2021/09/11 14:28:57;;;;;;;8.50;7.55;;;;;;;27.02;48.60;99768.69;254649;1107;103814;-70
2021/09/11 14:34:01;;;;;;;8.55;7.33;;;;;;;26.99;48.75;99766.63;253592;1107;116031;-68
2021/09/11 14:39:05;;;;;;;8.88;7.35;;;;;;;26.92;48.54;99771.84;253589;1106;116113;-67
2021/09/11 14:44:08;;;;;;;11.40;8.60;;;;;;;26.82;48.88;99773.13;253735;1106;115658;-68
2021/09/11 14:49:15;;;;;;;8.70;7.90;;;;;;;26.74;48.95;99770.49;253559;1107;116554;-68
2021/09/11 14:54:18;;;;;;;14.33;7.68;;;;;;;26.59;49.41;99776.65;256063;1107;116491;-67
2021/09/11 14:59:22;;;;;;;8.70;7.90;;;;;;;26.52;49.72;99779.94;256156;1107;117150;-69
2021/09/11 15:04:25;;;;;;;9.05;8.10;;;;;;;26.41;50.17;99774.10;256265;1106;115470;-68
2021/09/11 15:09:28;;;;;;;10.03;8.13;;;;;;;26.23;50.95;99778.15;256086;1107;115160;-67
2021/09/11 15:14:31;;;;;;;13.28;7.38;;;;;;;26.00;51.48;99780.45;254948;1107;116502;-67
2021/09/11 15:19:34;;;;;;;11.10;8.55;;;;;;;25.92;51.82;99764.16;254724;1107;115020;-69
2021/09/11 15:24:37;;;;;;;9.07;8.27;;;;;;;25.82;52.53;99766.17;253806;1106;115514;-68
2021/09/11 15:29:41;;;;;;;11.33;9.00;;;;;;;25.72;52.89;99765.77;253613;1107;115842;-69
2021/09/11 15:34:45;;;;;;;14.83;8.60;;;;;;;25.57;54.30;99758.98;253810;1100;116444;-69
2021/09/11 15:39:48;;;;;;;9.15;8.28;;;;;;;25.41;54.23;99768.88;253734;1103;115562;-67
2021/09/11 15:44:51;;;;;;;11.45;8.20;;;;;;;25.16;55.04;99768.73;254578;1107;116279;-68
2021/09/11 15:49:56;;;;;;;12.63;8.55;;;;;;;24.98;56.06;99772.71;253700;1107;116840;-70
2021/09/11 15:55:00;;;;;;;12.50;9.50;;;;;;;24.77;57.00;99755.45;253718;1107;115937;-68
2021/09/11 16:00:09;;;;;;;9.75;8.78;;;;;;;24.56;57.55;99755.39;253699;1100;115524;-67
2021/09/11 16:05:16;;;;;;;11.30;8.40;;;;;;;24.33;57.72;99748.59;254411;1107;115796;-67
2021/09/11 16:10:20;;;;;;;9.17;8.20;;;;;;;24.10;58.56;99753.45;253709;1107;115996;-67
2021/09/11 16:15:23;;;;;;;10.05;9.15;;;;;;;23.85;58.72;99752.34;254032;1107;115158;-66
2021/09/11 16:20:27;;;;;;;8.68;7.98;;;;;;;23.61;59.13;99760.22;253557;1100;115451;-67
2021/09/11 16:25:30;;;;;;;10.90;9.45;;;;;;;23.30;59.64;99758.41;254239;1106;115070;-67
2021/09/11 16:30:34;;;;;;;10.30;8.50;;;;;;;23.05;59.96;99767.33;253676;1107;115767;-67
2021/09/11 16:35:37;;;;;;;10.25;8.80;;;;;;;22.84;60.67;99767.13;253550;1107;115873;-67
2021/09/11 16:40:43;;;;;;;10.37;9.43;;;;;;;22.64;61.01;99767.64;253883;1107;115732;-67
2021/09/11 16:45:48;;;;;;;11.43;8.07;;;;;;;22.42;61.36;99761.16;253694;1107;115541;-67
2021/09/11 16:50:52;;;;;;;9.43;8.38;;;;;;;22.18;61.49;99760.72;253850;1107;117449;-67
2021/09/11 16:55:54;;;;;;;8.23;7.53;;;;;;;21.99;62.04;99760.11;253631;1106;207674;-66
2021/09/11 17:00:57;;;;;;;10.03;9.13;;;;;;;21.82;62.39;99763.48;253780;1100;115420;-67
2021/09/11 17:06:02;;;;;;;14.10;9.70;;;;;;;21.67;62.74;99751.11;254193;1107;115317;-67
2021/09/11 17:11:06;;;;;;;10.55;9.55;;;;;;;21.58;63.16;99755.66;255451;1106;115105;-71
2021/09/11 17:16:09;;;;;;;16.63;11.23;;;;;;;21.48;63.11;99796.56;254787;1107;118013;-66
2021/09/11 17:21:12;;;;;;;20.70;11.90;;;;;;;21.38;63.22;99802.23;254263;1102;116044;-65
2021/09/11 17:26:16;;;;;;;10.67;9.67;;;;;;;21.36;63.09;99810.66;254167;1107;116563;-67
2021/09/11 17:31:19;;;;;;;9.73;8.83;;;;;;;21.38;62.87;99813.07;253684;1107;115952;-65
2021/09/11 17:36:22;;;;;;;13.53;10.78;;;;;;;21.40;62.84;99827.13;253765;1107;115453;-67
2021/09/11 17:41:25;;;;;;;13.68;10.28;;;;;;;21.40;62.75;99821.70;253683;1107;117036;-67
2021/09/11 17:46:29;;;;;;;10.48;9.53;;;;;;;21.41;62.63;99823.28;253532;1107;116166;-67
2021/09/11 17:51:32;;;;;;;9.28;8.35;;;;;;;21.39;62.30;99826.33;254029;1107;115430;-67
2021/09/11 17:56:37;;;;;;;8.53;7.30;;;;;;;21.32;61.77;99819.70;253678;1107;115759;-67
2021/09/11 18:01:43;;;;;;;6.50;5.80;;;;;;;21.23;61.56;99824.23;254430;1107;115497;-67
2021/09/11 18:06:48;;;;;;;11.83;7.98;;;;;;;21.10;61.42;99831.22;253661;1107;115406;-67
2021/09/11 18:11:52;;;;;;;10.28;7.45;;;;;;;20.94;61.26;99833.45;253662;1100;115511;-67
2021/09/11 18:16:58;;;;;;;6.75;6.08;;;;;;;20.79;61.54;99841.88;253716;1100;116253;-67
2021/09/11 18:22:01;;;;;;;8.65;7.25;;;;;;;20.65;61.70;99851.88;254098;1107;115716;-68
2021/09/11 18:27:04;;;;;;;8.97;7.50;;;;;;;20.48;61.92;99852.45;253738;1107;116474;-67
2021/09/11 18:32:08;;;;;;;11.03;8.03;;;;;;;20.34;62.00;99851.57;253617;1107;117016;-67
2021/09/11 18:37:10;;;;;;;9.38;6.33;;;;;;;20.19;62.40;99850.70;253737;1107;116463;-66
2021/09/11 18:42:14;;;;;;;8.05;5.65;;;;;;;20.02;62.81;99842.33;253694;1103;115724;-67
2021/09/11 18:47:17;;;;;;;5.83;5.30;;;;;;;19.89;63.16;99842.26;253949;1107;135698;-66
2021/09/11 18:52:20;;;;;;;7.80;6.93;;;;;;;19.76;63.25;99849.22;254281;1107;115497;-67
2021/09/11 18:57:24;;;;;;;9.50;6.00;;;;;;;19.61;63.62;99852.94;256003;1106;115462;-67
2021/09/11 19:02:27;;;;;;;10.55;8.28;;;;;;;19.46;63.79;99866.64;256243;1107;115520;-68
2021/09/11 19:07:31;;;;;;;8.93;8.03;;;;;;;19.32;64.25;99849.50;256285;1107;114869;-67
2021/09/11 19:12:35;;;;;;;6.78;6.15;;;;;;;19.20;64.29;99846.43;256309;1106;114331;-67
2021/09/11 19:17:39;;;;;;;8.85;7.05;;;;;;;19.08;64.59;99847.63;254810;1107;115221;-70
2021/09/11 19:22:42;;;;;;;7.13;5.88;;;;;;;18.95;64.99;99848.34;256114;1106;115162;-67
2021/09/11 19:27:46;;;;;;;7.18;5.93;;;;;;;18.79;64.76;99844.17;254993;1107;115606;-66
2021/09/11 19:32:51;;;;;;;18.90;12.65;;;;;;;18.50;65.13;99839.56;254043;1100;116705;-67
2021/09/11 19:37:55;;;;;;;9.50;8.60;;;;;;;18.33;65.61;99841.89;253699;1107;140778;-67
2021/09/11 19:42:59;;;;;;;12.53;9.95;;;;;;;18.21;65.53;99841.44;253730;1100;116491;-67
2021/09/11 19:48:03;;;;;;;13.60;10.88;;;;;;;18.15;66.20;99840.67;253515;1100;116105;-66
2021/09/11 19:53:06;;;;;;;17.08;12.18;;;;;;;18.07;66.08;99843.97;253990;1100;195384;-70
2021/09/11 19:58:11;;;;;;;14.78;11.88;;;;;;;17.99;66.65;99846.48;254011;1107;115267;-66
2021/09/11 20:03:14;;;;;;;13.88;11.35;;;;;;;17.76;66.60;99848.76;253762;1107;115673;-66
2021/09/11 20:08:18;;;;;;;15.85;10.50;;;;;;;17.69;67.01;99844.78;254620;1107;116041;-65
2021/09/11 20:13:22;;;;;;;14.38;11.33;;;;;;;17.44;66.92;99840.28;253799;1107;116879;-66
2021/09/11 20:18:26;;;;;;;12.87;9.47;;;;;;;17.29;67.27;99838.48;254286;1107;115504;-67
2021/09/11 20:23:31;;;;;;;15.15;10.80;;;;;;;17.05;67.29;99845.59;253805;1100;115281;-66
2021/09/11 20:28:37;;;;;;;10.53;9.25;;;;;;;16.92;68.09;99841.57;254506;1107;116621;-66
2021/09/11 20:33:41;;;;;;;;;;;;;;;16.94;68.37;99843.99;254509;1107;116247;-67
2021/09/11 20:38:44;;;;;;;11.95;9.68;;;;;;;16.94;68.53;99843.99;254897;1107;103142;-66
2021/09/11 20:43:48;;;;;;;14.50;11.38;;;;;;;16.91;68.59;99856.11;253658;1107;116383;-66
2021/09/11 20:48:52;;;;;;;14.23;10.83;;;;;;;16.87;68.84;99865.01;253964;1107;117250;-66
2021/09/11 20:53:55;;;;;;;12.58;11.38;;;;;;;16.82;68.94;99850.47;253610;1107;115836;-65
2021/09/11 20:59:02;;;;;;;12.63;10.73;;;;;;;16.71;69.04;99859.67;254499;1106;116374;-66
2021/09/11 21:04:08;;;;;;;17.05;10.75;;;;;;;16.60;69.04;99862.60;255155;1107;115833;-67
2021/09/11 21:09:12;;;;;;;15.43;9.63;;;;;;;16.49;69.12;99865.33;255073;1107;117052;-67
2021/09/11 21:14:16;;;;;;;13.53;10.25;;;;;;;16.35;69.17;99875.00;253827;1107;115224;-65
2021/09/11 21:19:20;;;;;;;9.63;8.85;;;;;;;16.18;69.27;99869.09;256411;1107;118956;-65
2021/09/11 21:24:23;;;;;;;16.20;11.00;;;;;;;16.08;69.54;99858.31;256136;1107;116404;-66
2021/09/11 21:29:27;;;;;;;11.00;8.77;;;;;;;16.03;69.69;99861.00;255879;1107;115399;-67
2021/09/11 21:34:31;;;;;;;11.27;10.17;;;;;;;15.90;70.11;99856.16;254885;1107;116051;-67
2021/09/11 21:39:34;;;;;;;19.93;12.00;;;;;;;15.87;70.42;99856.69;254923;1100;115480;-66
2021/09/11 21:44:37;;;;;;;18.03;9.83;;;;;;;15.90;70.66;99864.22;254052;1107;115572;-65
2021/09/11 21:49:40;;;;;;;12.85;10.45;;;;;;;15.83;70.45;99861.78;254721;1106;115621;-66
2021/09/11 21:54:44;;;;;;;13.88;12.10;;;;;;;15.80;70.61;99860.43;253872;1107;115343;-66
2021/09/11 21:59:48;;;;;;;11.63;10.43;;;;;;;15.71;70.52;99859.33;253909;1107;115808;-65
2021/09/11 22:04:50;;;;;;;15.15;11.05;;;;;;;15.57;70.63;99866.30;254256;1107;116654;-65
2021/09/11 22:09:54;;;;;;;12.40;11.20;;;;;;;15.53;70.62;99862.48;253870;1107;115600;-66
2021/09/11 22:14:57;;;;;;;11.30;10.30;;;;;;;15.49;71.17;99864.08;254149;1106;115564;-69
2021/09/11 22:20:01;;;;;;;14.20;11.03;;;;;;;15.45;71.14;99863.80;253753;1107;116303;-64
2021/09/11 22:25:08;;;;;;;13.50;12.10;;;;;;;15.41;71.19;99859.20;253639;1107;118141;-68
2021/09/11 22:30:12;;;;;;;14.20;11.20;;;;;;;15.37;71.10;99868.86;253789;1106;116355;-66
2021/09/11 22:35:14;;;;;;;13.38;11.45;;;;;;;15.34;71.35;99864.01;254481;1107;115782;-66
2021/09/11 22:40:17;;;;;;;15.30;13.37;;;;;;;15.19;71.15;99869.33;254170;1107;115993;-66
2021/09/11 22:45:21;;;;;;;16.48;12.95;;;;;;;15.14;72.00;99865.55;254605;1107;116154;-66
2021/09/11 22:50:24;;;;;;;13.48;11.85;;;;;;;15.07;71.65;99864.16;253941;1106;115712;-65
2021/09/11 22:55:29;;;;;;;15.43;13.70;;;;;;;14.97;71.27;99867.61;253870;1107;115771;-66
2021/09/11 23:00:33;;;;;;;22.53;13.10;;;;;;;14.94;72.02;99865.45;254165;1107;119255;-66
2021/09/11 23:05:37;;;;;;;15.68;14.05;;;;;;;14.85;71.19;99860.82;254346;1107;116321;-66